Time;durP1;ratioP1;P1;durP2;ratioP2;P2;SDS_P1;SDS_P2;PMS_P1;PMS_P2;Temp;Humidity;BMP_temperature;BMP_pressure;BME280_temperature;BME280_humidity;BME280_pressure;Samples;Min_cycle;Max_cycle;Signal;HPM_P1;HPM_P2
2021/07/06 00:01:26;;;;;;;3.40;1.50;;;;;;;16.07;100.00;97399.72;5018964;28;20110;-79
2021/07/06 00:03:53;;;;;;;3.20;1.42;;;;;;;16.01;100.00;97407.38;5018899;28;20045;-80
2021/07/06 00:06:22;;;;;;;2.72;1.60;;;;;;;15.97;100.00;97403.78;5020913;28;20495;-80
2021/07/06 00:08:50;;;;;;;3.60;1.65;;;;;;;15.93;100.00;97405.63;5004179;28;20049;-81
2021/07/06 00:11:16;;;;;;;9.02;1.80;;;;;;;15.93;100.00;97397.44;5023489;28;20506;-80
2021/07/06 00:13:45;;;;;;;3.90;1.70;;;;;;;15.96;100.00;97401.41;5021489;28;20125;-78
2021/07/06 00:16:13;;;;;;;3.13;1.65;;;;;;;15.94;100.00;97400.97;5020631;28;20049;-80
2021/07/06 00:18:41;;;;;;;3.08;1.50;;;;;;;15.93;100.00;97397.44;5020583;28;20046;-79
2021/07/06 00:21:08;;;;;;;3.22;1.60;;;;;;;15.90;100.00;97400.88;5020464;28;20050;-79
2021/07/06 00:23:34;;;;;;;6.72;1.42;;;;;;;15.92;100.00;97390.41;5015789;28;20345;-78
2021/07/06 00:26:01;;;;;;;4.88;1.30;;;;;;;15.87;100.00;97392.63;5020438;28;20057;-80
2021/07/06 00:28:28;;;;;;;3.95;1.60;;;;;;;15.87;100.00;97390.66;5019210;28;20104;-79
2021/07/06 00:30:54;;;;;;;1.75;1.50;;;;;;;15.81;100.00;97386.63;5020982;28;20045;-79
2021/07/06 00:33:22;;;;;;;5.75;1.80;;;;;;;15.80;100.00;97379.59;5021436;28;20065;-80
2021/07/06 00:35:50;;;;;;;4.05;1.90;;;;;;;15.75;100.00;97373.59;5023382;28;20050;-78
2021/07/06 00:38:17;;;;;;;2.55;1.80;;;;;;;15.73;100.00;97379.44;5020822;28;20414;-79
2021/07/06 00:40:44;;;;;;;2.25;1.58;;;;;;;15.71;100.00;97381.72;5021714;28;20088;-78
2021/07/06 00:43:10;;;;;;;3.05;1.90;;;;;;;15.70;100.00;97377.41;5022729;28;20057;-80
2021/07/06 00:45:37;;;;;;;6.68;2.20;;;;;;;15.67;100.00;97378.09;5022126;28;20061;-80
2021/07/06 00:48:04;;;;;;;3.45;1.73;;;;;;;15.70;100.00;97393.78;5031464;28;20029;-76
2021/07/06 00:50:31;;;;;;;5.95;1.90;;;;;;;15.66;100.00;97383.94;5035102;28;20065;-80
2021/07/06 00:52:57;;;;;;;3.85;2.05;;;;;;;15.65;100.00;97395.97;5010880;28;20076;-81
2021/07/06 00:55:24;;;;;;;7.07;1.60;;;;;;;15.60;100.00;97383.41;4991265;28;20093;-78
2021/07/06 00:57:51;;;;;;;3.35;1.83;;;;;;;15.56;100.00;97396.94;5002000;28;20484;-79
2021/07/06 01:00:24;;;;;;;4.72;1.63;;;;;;;15.54;100.00;97395.72;5001459;28;20050;-79
2021/07/06 01:02:52;;;;;;;4.38;2.20;;;;;;;15.46;100.00;97402.13;5020953;28;20041;-80
2021/07/06 01:05:22;;;;;;;3.90;1.67;;;;;;;15.38;100.00;97395.69;5003256;28;20069;-81
2021/07/06 01:07:50;;;;;;;5.00;1.80;;;;;;;15.35;100.00;97401.06;5019315;28;20486;-79
2021/07/06 01:10:17;;;;;;;4.93;1.70;;;;;;;15.28;100.00;97400.91;5019536;28;20072;-78
2021/07/06 01:12:45;;;;;;;10.98;1.77;;;;;;;15.26;100.00;97405.88;5002434;28;20096;-79
2021/07/06 01:15:16;;;;;;;4.85;1.55;;;;;;;15.19;100.00;97395.59;5017573;28;20038;-79
2021/07/06 01:17:44;;;;;;;8.43;1.70;;;;;;;15.10;100.00;97389.50;5001896;28;20053;-78
2021/07/06 01:20:15;;;;;;;2.83;1.88;;;;;;;15.06;100.00;97387.84;5000975;28;20042;-80
2021/07/06 01:22:43;;;;;;;4.63;1.88;;;;;;;14.96;100.00;97387.22;5002333;28;20431;-80
2021/07/06 01:25:11;;;;;;;2.22;1.73;;;;;;;14.88;100.00;97379.19;5000169;28;20110;-79
2021/07/06 01:27:39;;;;;;;5.40;2.03;;;;;;;14.79;100.00;97392.16;5018152;28;20046;-79
2021/07/06 01:30:09;;;;;;;6.78;1.98;;;;;;;14.75;100.00;97388.56;5017875;28;20041;-79
2021/07/06 01:32:42;;;;;;;4.70;1.67;;;;;;;14.73;100.00;97388.91;5003172;28;20057;-80
2021/07/06 01:35:10;;;;;;;4.57;1.52;;;;;;;14.72;100.00;97392.78;5006043;28;20094;-80
2021/07/06 01:37:42;;;;;;;6.28;2.22;;;;;;;14.71;100.00;97385.72;5009080;28;20049;-80
2021/07/06 01:40:13;;;;;;;5.70;2.22;;;;;;;14.66;100.00;97382.47;5024394;28;20116;-81
2021/07/06 01:42:41;;;;;;;3.28;1.80;;;;;;;14.56;100.00;97391.13;5004474;28;20049;-80
2021/07/06 01:45:16;;;;;;;3.72;1.90;;;;;;;14.43;100.00;97384.16;5020493;28;20463;-80
2021/07/06 01:47:47;;;;;;;9.95;1.80;;;;;;;14.39;100.00;97384.03;5004324;28;20054;-80
2021/07/06 01:50:17;;;;;;;6.15;1.83;;;;;;;14.40;100.00;97387.56;5021132;28;20046;-80
2021/07/06 01:52:52;;;;;;;5.50;1.80;;;;;;;14.44;100.00;97381.06;5004457;28;20046;-80
2021/07/06 01:55:22;;;;;;;4.68;2.20;;;;;;;14.46;100.00;97388.88;5003666;28;20041;-79
2021/07/06 01:57:50;;;;;;;2.78;2.38;;;;;;;14.45;100.00;97388.13;5003548;28;20049;-80
2021/07/06 02:00:19;;;;;;;5.63;2.25;;;;;;;14.42;100.00;97396.19;5021433;28;20046;-80
2021/07/06 02:02:46;;;;;;;7.82;2.42;;;;;;;14.44;100.00;97383.81;5020845;28;20475;-81
2021/07/06 02:05:13;;;;;;;6.90;2.40;;;;;;;14.50;100.00;97387.06;5020424;28;20052;-80
2021/07/06 02:07:43;;;;;;;6.22;2.55;;;;;;;14.47;100.00;97382.31;5020846;28;20095;-81
2021/07/06 02:10:12;;;;;;;8.90;2.13;;;;;;;14.54;100.00;97371.63;5020056;28;20046;-81
2021/07/06 02:12:39;;;;;;;9.57;2.60;;;;;;;14.47;100.00;97369.50;5020478;28;20071;-82
2021/07/06 02:15:12;;;;;;;7.07;1.95;;;;;;;14.42;100.00;97374.41;5001295;28;20069;-81
2021/07/06 02:17:38;;;;;;;4.35;2.13;;;;;;;14.34;100.00;97366.03;5005022;28;20064;-81
2021/07/06 02:20:08;;;;;;;4.90;2.00;;;;;;;14.35;100.00;97361.34;5022169;28;20053;-82
2021/07/06 02:22:40;;;;;;;5.63;2.22;;;;;;;14.30;100.00;97359.63;5022225;28;20064;-81
2021/07/06 02:25:11;;;;;;;6.05;2.40;;;;;;;14.34;100.00;97357.06;5021091;28;20046;-81
2021/07/06 02:27:38;;;;;;;6.30;2.20;;;;;;;14.31;100.00;97360.47;5023205;28;20065;-81
2021/07/06 02:30:07;;;;;;;8.95;2.85;;;;;;;14.34;100.00;97354.34;5019433;23;20045;-80
2021/07/06 02:32:36;;;;;;;6.25;2.20;;;;;;;14.30;100.00;97342.50;5033443;28;20091;-81
2021/07/06 02:35:06;;;;;;;3.75;2.05;;;;;;;14.30;100.00;97339.78;5033897;28;20049;-80
2021/07/06 02:37:32;;;;;;;9.25;2.20;;;;;;;14.30;100.00;97347.94;5016910;28;20056;-81
2021/07/06 02:40:00;;;;;;;8.48;2.88;;;;;;;14.37;100.00;97337.31;5033259;28;20273;-80
2021/07/06 02:42:26;;;;;;;4.80;2.80;;;;;;;14.38;100.00;97343.53;5028881;28;20052;-79
2021/07/06 02:44:53;;;;;;;10.60;3.03;;;;;;;14.40;100.00;97344.00;5044962;28;20030;-79
2021/07/06 02:47:20;;;;;;;6.30;2.88;;;;;;;14.43;100.00;97344.06;5044201;28;20041;-80
2021/07/06 02:49:46;;;;;;;4.45;2.60;;;;;;;14.44;100.00;97353.03;5024828;28;20097;-81
2021/07/06 02:52:13;;;;;;;9.40;2.60;;;;;;;14.51;100.00;97350.50;5022638;28;20377;-81
2021/07/06 02:54:40;;;;;;;8.57;2.88;;;;;;;14.51;100.00;97364.94;5016341;28;20049;-83
2021/07/06 02:57:10;;;;;;;6.57;2.80;;;;;;;14.49;100.00;97350.06;5033508;28;20045;-81
2021/07/06 02:59:37;;;;;;;6.05;3.45;;;;;;;14.53;100.00;97353.69;5015709;28;20228;-82
2021/07/06 03:02:07;;;;;;;6.47;2.97;;;;;;;14.48;100.00;97343.81;5015754;28;20424;-82
2021/07/06 03:04:35;;;;;;;6.53;3.00;;;;;;;14.51;100.00;97343.13;5015570;28;20496;-83
2021/07/06 03:07:02;;;;;;;8.10;3.05;;;;;;;14.52;100.00;97357.56;5015618;28;20053;-81
2021/07/06 03:09:28;;;;;;;7.32;3.40;;;;;;;14.47;100.00;97360.53;5014789;28;20099;-82
2021/07/06 03:11:55;;;;;;;9.70;3.63;;;;;;;14.48;100.00;97360.16;5033409;28;20050;-82
2021/07/06 03:14:21;;;;;;;6.95;2.75;;;;;;;14.48;100.00;97362.13;5015671;28;20038;-82
2021/07/06 03:16:51;;;;;;;6.70;2.97;;;;;;;14.47;100.00;97347.72;5015828;28;20052;-82
2021/07/06 03:19:18;;;;;;;10.23;3.05;;;;;;;14.45;100.00;97355.44;5014987;28;20095;-81
2021/07/06 03:21:45;;;;;;;4.50;2.83;;;;;;;14.42;100.00;97352.59;5032184;28;20045;-80
2021/07/06 03:24:11;;;;;;;9.25;2.70;;;;;;;14.40;100.00;97342.03;5031816;28;20053;-82
2021/07/06 03:26:38;;;;;;;7.45;3.05;;;;;;;14.38;100.00;97338.88;5032096;28;20045;-80
2021/07/06 03:29:05;;;;;;;6.22;3.00;;;;;;;14.42;100.00;97358.06;5014368;28;20455;-82
2021/07/06 03:31:31;;;;;;;7.30;3.17;;;;;;;14.44;100.00;97351.13;5015056;23;20412;-82
2021/07/06 03:34:00;;;;;;;7.68;2.88;;;;;;;14.51;100.00;97364.94;4993930;28;20038;-81
2021/07/06 03:36:28;;;;;;;9.57;3.55;;;;;;;14.52;100.00;97363.00;4994035;28;20115;-81
2021/07/06 03:38:54;;;;;;;6.30;3.40;;;;;;;14.51;100.00;97358.69;4996615;28;20457;-82
2021/07/06 03:41:21;;;;;;;10.55;4.00;;;;;;;14.47;100.00;97350.44;5002270;28;20052;-81
2021/07/06 03:43:47;;;;;;;18.73;4.28;;;;;;;14.55;100.00;97348.69;4983131;28;20042;-82
2021/07/06 03:46:14;;;;;;;14.85;3.78;;;;;;;14.55;100.00;97354.16;5000370;28;20047;-81
2021/07/06 03:48:41;;;;;;;10.13;3.67;;;;;;;14.62;100.00;97348.88;5000406;28;20050;-82
2021/07/06 03:51:07;;;;;;;8.60;3.58;;;;;;;14.63;100.00;97364.91;5000495;28;20054;-81
2021/07/06 03:53:34;;;;;;;16.05;3.47;;;;;;;14.65;100.00;97353.63;4999691;28;20046;-81
2021/07/06 03:56:00;;;;;;;15.20;3.90;;;;;;;14.63;100.00;97350.47;5002198;28;20046;-82
2021/07/06 03:58:27;;;;;;;12.55;3.60;;;;;;;14.64;100.00;97350.13;5000469;28;20050;-80
2021/07/06 04:00:53;;;;;;;9.70;3.30;;;;;;;14.77;100.00;97357.09;5007379;28;20069;-81
2021/07/06 04:03:20;;;;;;;6.00;3.22;;;;;;;14.77;100.00;97348.13;5004048;28;20138;-81
2021/07/06 04:05:47;;;;;;;12.35;3.22;;;;;;;14.82;100.00;97348.66;5001674;28;20050;-81
2021/07/06 04:08:13;;;;;;;9.32;3.03;;;;;;;14.77;100.00;97326.31;5002173;28;20046;-82
2021/07/06 04:10:40;;;;;;;4.13;2.83;;;;;;;14.91;100.00;97345.78;5006099;28;20173;-79
2021/07/06 04:13:06;;;;;;;4.32;3.05;;;;;;;14.99;100.00;97337.44;5002014;28;20110;-79
2021/07/06 04:15:33;;;;;;;7.78;2.90;;;;;;;15.01;100.00;97339.81;4999591;28;20038;-85
2021/07/06 04:18:00;;;;;;;16.33;2.83;;;;;;;15.08;100.00;97344.66;4998760;28;20054;-85
2021/07/06 04:20:27;;;;;;;9.38;2.83;;;;;;;15.19;100.00;97346.50;4984632;28;20046;-86
2021/07/06 04:22:54;;;;;;;5.65;2.80;;;;;;;15.21;100.00;97337.97;4985707;28;20053;-86
2021/07/06 04:25:21;;;;;;;7.10;2.40;;;;;;;15.34;100.00;97332.06;4998622;28;20045;-86
2021/07/06 04:27:48;;;;;;;6.53;2.33;;;;;;;15.44;100.00;97336.19;4998477;28;20326;-85
2021/07/06 04:30:21;;;;;;;5.70;1.88;;;;;;;15.51;100.00;97333.69;5002139;28;20072;-86
2021/07/06 04:32:48;;;;;;;5.45;1.90;;;;;;;15.56;100.00;97317.06;5002105;28;20488;-87
2021/07/06 04:35:15;;;;;;;2.70;1.80;;;;;;;15.84;100.00;97342.25;4995342;28;20495;-86
2021/07/06 04:46:23;;;;;;;4.57;1.25;;;;;;;16.27;100.00;97297.53;4863659;29;20105;-85
2021/07/06 04:53:06;;;;;;;7.07;1.88;;;;;;;16.54;100.00;97296.53;4931456;28;20537;-85
2021/07/06 04:55:55;;;;;;;;;;;;;;;16.80;100.00;97325.94;4978094;28;20102;-84
2021/07/06 04:58:31;;;;;;;5.65;1.50;;;;;;;16.88;100.00;97310.44;4991214;28;20035;-85
2021/07/06 05:01:10;;;;;;;4.10;1.30;;;;;;;16.89;100.00;97317.47;4999669;28;20042;-86
2021/07/06 05:03:51;;;;;;;9.00;1.45;;;;;;;16.84;100.00;97304.91;4933574;29;20471;-83
2021/07/06 05:06:27;;;;;;;5.25;1.20;;;;;;;17.02;100.00;97307.94;4923990;29;20052;-85
2021/07/06 05:09:02;;;;;;;2.55;1.45;;;;;;;17.25;100.00;97311.47;4923238;29;20079;-85
2021/07/06 05:11:33;;;;;;;6.20;1.60;;;;;;;17.45;100.00;97330.19;4924425;29;20059;-87
2021/07/06 05:14:29;;;;;;;10.75;1.33;;;;;;;17.44;100.00;97317.66;4930886;29;20123;-86
2021/07/06 05:20:15;;;;;;;3.30;1.30;;;;;;;17.51;100.00;97300.56;4934090;29;20056;-87
2021/07/06 05:22:59;;;;;;;6.05;1.27;;;;;;;17.63;100.00;97305.03;4934454;29;20516;-86
2021/07/06 05:25:38;;;;;;;3.42;1.08;;;;;;;17.74;100.00;97312.28;4908878;29;20043;-86
2021/07/06 05:28:12;;;;;;;5.18;1.42;;;;;;;17.84;100.00;97313.56;4923980;29;20050;-86
2021/07/06 05:30:39;;;;;;;3.33;1.20;;;;;;;17.99;100.00;97315.34;4922941;29;20082;-86
2021/07/06 05:33:37;;;;;;;5.70;1.13;;;;;;;18.03;100.00;97302.50;4941334;28;20052;-89
2021/07/06 05:36:11;;;;;;;1.70;1.33;;;;;;;18.24;100.00;97326.66;4983383;28;20519;-87
2021/07/06 05:38:41;;;;;;;2.00;1.27;;;;;;;18.36;100.00;97307.22;4997956;28;20058;-87
2021/07/06 05:41:09;;;;;;;4.45;1.15;;;;;;;18.38;100.00;97305.69;4979599;28;20046;-88
2021/07/06 05:43:35;;;;;;;2.30;1.15;;;;;;;18.44;100.00;97303.41;4980097;28;20322;-87
2021/07/06 05:46:02;;;;;;;4.10;1.50;;;;;;;18.58;100.00;97309.88;4997103;28;20090;-87
2021/07/06 05:48:41;;;;;;;7.90;1.75;;;;;;;18.64;100.00;97305.63;4979815;28;20133;-87
2021/07/06 05:51:21;;;;;;;9.02;1.40;;;;;;;18.72;100.00;97295.53;4996342;28;20057;-86
2021/07/06 05:53:49;;;;;;;3.50;1.35;;;;;;;18.86;100.00;97289.41;4995976;28;20065;-87
2021/07/06 05:56:17;;;;;;;5.30;1.40;;;;;;;19.07;100.00;97304.09;4996490;28;20049;-86
2021/07/06 05:58:44;;;;;;;3.88;1.42;;;;;;;18.99;100.00;97271.50;4995720;28;20065;-86
2021/07/06 06:01:10;;;;;;;4.20;1.67;;;;;;;19.13;100.00;97272.41;4995507;28;20049;-86
2021/07/06 06:03:41;;;;;;;10.27;1.63;;;;;;;19.43;100.00;97299.75;4979099;28;20086;-85
2021/07/06 06:06:09;;;;;;;6.13;1.60;;;;;;;19.46;100.00;97288.00;4993815;28;20282;-85
2021/07/06 06:08:36;;;;;;;4.47;1.50;;;;;;;19.42;100.00;97261.69;4994465;28;20058;-85
2021/07/06 06:11:03;;;;;;;3.78;1.40;;;;;;;19.56;100.00;97262.56;4993766;28;20054;-87
2021/07/06 06:13:30;;;;;;;8.38;1.70;;;;;;;19.68;100.00;97265.00;4995281;28;20049;-85
2021/07/06 06:15:57;;;;;;;6.28;1.90;;;;;;;19.90;100.00;97285.13;4996213;28;20039;-87
2021/07/06 06:18:24;;;;;;;8.27;1.60;;;;;;;19.92;100.00;97265.53;4977864;28;20710;-86
2021/07/06 06:20:51;;;;;;;4.45;1.65;;;;;;;20.14;100.00;97259.75;4993972;28;20421;-85
2021/07/06 06:23:21;;;;;;;4.65;1.90;;;;;;;20.42;100.00;97278.34;4994640;28;20045;-86
2021/07/06 06:25:52;;;;;;;5.07;1.60;;;;;;;20.52;100.00;97266.59;4978640;28;20073;-86
2021/07/06 06:28:19;;;;;;;4.25;2.45;;;;;;;20.58;100.00;97251.28;4978520;28;20122;-85
2021/07/06 06:30:49;;;;;;;1.70;1.10;;;;;;;20.80;100.00;97255.66;4979314;28;20050;-87
2021/07/06 06:33:18;;;;;;;4.53;0.90;;;;;;;20.86;100.00;97243.09;4979068;28;20054;-86
2021/07/06 06:35:45;;;;;;;4.00;0.90;;;;;;;20.94;100.00;97227.38;4979789;28;20080;-84
2021/07/06 06:38:20;;;;;;;2.40;0.85;;;;;;;21.20;100.00;97248.25;4997749;28;20054;-87
2021/07/06 06:40:48;;;;;;;2.38;1.00;;;;;;;21.15;100.00;97229.38;4997736;28;20043;-86
2021/07/06 06:43:15;;;;;;;4.03;1.00;;;;;;;21.31;100.00;97238.81;4996734;28;20039;-84
2021/07/06 06:45:42;;;;;;;4.65;1.00;;;;;;;21.34;100.00;97240.00;4998903;28;20077;-86
2021/07/06 06:48:09;;;;;;;3.03;1.10;;;;;;;21.56;100.00;97253.34;4983664;28;20061;-87
2021/07/06 06:50:36;;;;;;;6.32;1.10;;;;;;;21.66;100.00;97262.78;4997518;28;20054;-88
2021/07/06 06:53:02;;;;;;;3.78;1.35;;;;;;;21.69;100.00;97250.97;5001337;28;20053;-85
2021/07/06 06:55:29;;;;;;;3.58;0.90;;;;;;;21.69;100.00;97246.25;5001920;28;20069;-84
2021/07/06 06:57:58;;;;;;;2.67;1.00;;;;;;;21.84;100.00;97259.97;5004409;28;20050;-86
2021/07/06 07:00:35;;;;;;;2.03;0.80;;;;;;;21.78;100.00;97237.56;5003105;28;20046;-88
2021/07/06 07:03:02;;;;;;;2.20;0.88;;;;;;;21.91;100.00;97227.69;5004750;28;20048;-85
2021/07/06 07:05:29;;;;;;;4.28;1.00;;;;;;;21.99;100.00;97234.75;4985382;28;20054;-88
2021/07/06 07:07:57;;;;;;;2.47;0.80;;;;;;;22.16;100.00;97238.66;5009822;28;20074;-86
2021/07/06 07:10:28;;;;;;;1.08;0.90;;;;;;;22.33;100.00;97246.84;5007698;28;20057;-86
2021/07/06 07:12:56;;;;;;;3.88;1.00;;;;;;;22.42;100.00;97253.91;5006916;28;20058;-85
2021/07/06 07:15:23;;;;;;;2.72;0.95;;;;;;;22.54;100.00;97239.66;4993433;28;20046;-84
2021/07/06 07:17:53;;;;;;;3.35;0.77;;;;;;;22.63;100.00;97218.75;4995770;28;20046;-86
2021/07/06 07:20:20;;;;;;;3.55;1.00;;;;;;;22.71;100.00;97234.03;5010644;28;20113;-85
2021/07/06 07:22:47;;;;;;;3.22;0.90;;;;;;;22.78;100.00;97249.78;5012020;28;20098;-88
2021/07/06 07:25:14;;;;;;;3.70;1.20;;;;;;;22.71;100.00;97239.56;4996091;28;20458;-85
2021/07/06 07:27:42;;;;;;;3.40;0.90;;;;;;;23.05;100.00;97244.50;5001460;28;20082;-86
2021/07/06 07:30:12;;;;;;;1.40;0.85;;;;;;;23.18;100.00;97253.84;4999765;28;20046;-87
2021/07/06 07:32:38;;;;;;;4.50;1.00;;;;;;;23.26;100.00;97247.84;5003969;28;20046;-86
2021/07/06 07:35:06;;;;;;;2.50;0.88;;;;;;;23.29;100.00;97235.19;4999756;28;20043;-87
2021/07/06 07:37:33;;;;;;;1.38;0.85;;;;;;;23.49;100.00;97248.06;4998781;28;20057;-87
2021/07/06 07:40:01;;;;;;;2.97;0.80;;;;;;;23.52;100.00;97227.91;4998921;28;20039;-87
2021/07/06 07:42:30;;;;;;;5.60;1.00;;;;;;;23.73;100.00;97251.78;5004336;28;20042;-85
2021/07/06 07:44:58;;;;;;;1.20;0.77;;;;;;;23.79;100.00;97228.06;4999106;28;20277;-87
2021/07/06 07:47:25;;;;;;;3.30;0.80;;;;;;;24.02;100.00;97232.94;5005051;28;20463;-86
2021/07/06 07:49:51;;;;;;;3.53;0.82;;;;;;;23.84;100.00;97213.00;5000185;28;20038;-85
2021/07/06 07:52:18;;;;;;;1.90;0.73;;;;;;;23.84;100.00;97227.59;4998550;28;20054;-87
2021/07/06 07:54:45;;;;;;;1.20;0.60;;;;;;;23.98;100.00;97232.94;5000056;28;20047;-82
2021/07/06 07:57:11;;;;;;;4.25;0.90;;;;;;;24.06;100.00;97228.13;5001855;28;20070;-85
2021/07/06 07:59:38;;;;;;;2.88;0.70;;;;;;;24.10;100.00;97226.94;5001871;28;20042;-86
2021/07/06 08:02:06;;;;;;;1.13;0.80;;;;;;;24.14;100.00;97215.81;4998674;28;20046;-85
2021/07/06 08:04:33;;;;;;;1.52;0.70;;;;;;;24.41;100.00;97227.72;4998515;28;20066;-85
2021/07/06 08:07:00;;;;;;;1.60;0.73;;;;;;;24.66;100.00;97230.16;4999052;28;20230;-86
2021/07/06 08:09:31;;;;;;;5.35;0.88;;;;;;;24.78;100.00;97219.31;4997898;28;20058;-84
2021/07/06 08:11:58;;;;;;;1.38;0.85;;;;;;;25.01;100.00;97231.66;4998707;28;20050;-86
2021/07/06 08:14:25;;;;;;;4.38;0.70;;;;;;;25.09;100.00;97219.22;4999189;28;20051;-86
2021/07/06 08:16:54;;;;;;;3.28;0.90;;;;;;;25.08;100.00;97210.16;4997486;28;20053;-87
2021/07/06 08:19:21;;;;;;;2.65;0.70;;;;;;;24.97;100.00;97198.47;4998739;28;20050;-86
2021/07/06 08:21:48;;;;;;;1.90;0.60;;;;;;;24.99;100.00;97196.06;4999476;28;20050;-84
2021/07/06 08:24:15;;;;;;;3.55;0.80;;;;;;;25.01;100.00;97187.34;4989596;28;20077;-84
2021/07/06 08:26:42;;;;;;;3.03;0.75;;;;;;;25.29;100.00;97212.56;4990430;28;20478;-87
2021/07/06 08:29:18;;;;;;;1.75;0.75;;;;;;;25.40;100.00;97209.59;4999511;28;20050;-85
2021/07/06 08:31:53;;;;;;;2.20;0.70;;;;;;;25.37;100.00;97193.81;4998141;28;20049;-86
2021/07/06 08:34:32;;;;;;;3.53;0.85;;;;;;;25.42;100.00;97175.94;4998043;28;20146;-87
2021/07/06 08:36:58;;;;;;;1.30;0.80;;;;;;;25.70;100.00;97203.97;5000750;28;20041;-86
2021/07/06 08:39:25;;;;;;;1.10;0.68;;;;;;;25.58;100.00;97198.22;4999817;28;20054;-86
2021/07/06 08:41:52;;;;;;;2.85;0.88;;;;;;;25.74;100.00;97206.66;4997877;28;20137;-85
2021/07/06 08:44:22;;;;;;;1.52;0.80;;;;;;;25.97;100.00;97189.94;4998933;28;20054;-88
2021/07/06 08:46:50;;;;;;;1.80;0.80;;;;;;;25.83;100.00;97193.03;5000092;28;20387;-84
2021/07/06 08:49:19;;;;;;;1.27;0.60;;;;;;;26.08;100.00;97206.38;5000125;28;20057;-86
2021/07/06 08:51:50;;;;;;;1.75;0.80;;;;;;;25.97;100.00;97204.59;5001277;28;20042;-85
2021/07/06 08:54:26;;;;;;;0.90;0.75;;;;;;;26.13;100.00;97209.47;4998720;28;20042;-87
2021/07/06 08:56:55;;;;;;;2.53;1.20;;;;;;;26.22;100.00;97198.56;4996937;28;20043;-88
2021/07/06 08:59:30;;;;;;;3.35;0.80;;;;;;;26.38;95.34;97201.41;4981239;28;20479;-87
2021/07/06 09:01:57;;;;;;;2.28;0.60;;;;;;;26.42;94.43;97209.66;4997455;28;20074;-82
2021/07/06 09:04:45;;;;;;;3.28;0.82;;;;;;;26.48;93.71;97194.84;4996739;28;20042;-83
2021/07/06 09:07:14;;;;;;;2.08;0.70;;;;;;;26.63;100.00;97186.22;4996206;28;20050;-85
2021/07/06 09:09:41;;;;;;;2.47;0.80;;;;;;;26.76;100.00;97184.31;4997345;28;20449;-85
2021/07/06 09:12:11;;;;;;;2.63;0.70;;;;;;;26.83;98.93;97198.06;4981118;28;20042;-87
2021/07/06 09:14:49;;;;;;;2.60;0.80;;;;;;;26.97;97.38;97215.19;4997522;28;20048;-89
2021/07/06 09:17:21;;;;;;;3.13;0.50;;;;;;;26.76;100.00;97199.00;4982905;28;20093;-89
2021/07/06 09:19:50;;;;;;;2.30;0.80;;;;;;;26.79;91.54;97206.47;4999590;28;20059;-87
2021/07/06 09:22:25;;;;;;;2.78;0.77;;;;;;;26.71;100.00;97202.28;4999585;28;20047;-88
2021/07/06 09:25:06;;;;;;;5.88;0.50;;;;;;;27.06;89.14;97211.81;5000863;28;20046;-85
2021/07/06 09:27:42;;;;;;;0.70;0.50;;;;;;;27.12;100.00;97185.84;5000143;28;20046;-83
2021/07/06 09:30:08;;;;;;;;;;;;;;;27.60;100.00;97206.50;5001684;28;20057;-88
2021/07/06 09:32:52;;;;;;;2.95;0.70;;;;;;;27.42;79.35;97197.81;5017196;23;19924;-86
2021/07/06 09:35:28;;;;;;;1.60;0.70;;;;;;;27.79;92.14;97211.16;5013612;28;20064;-87
2021/07/06 09:38:11;;;;;;;2.33;0.85;;;;;;;27.98;80.67;97217.81;5011350;28;20055;-87
2021/07/06 09:41:02;;;;;;;1.92;0.63;;;;;;;28.65;69.97;97190.84;5023353;28;20513;-85
2021/07/06 09:43:33;;;;;;;2.90;0.70;;;;;;;29.35;73.75;97198.94;5039341;28;20041;-86
2021/07/06 09:46:07;;;;;;;1.42;0.70;;;;;;;29.68;56.74;97200.19;5004931;28;20242;-85
2021/07/06 09:49:00;;;;;;;2.03;0.63;;;;;;;30.22;59.68;97202.66;5004464;28;20045;-83
2021/07/06 09:51:46;;;;;;;1.42;0.73;;;;;;;31.03;58.19;97179.19;5007444;28;20045;-85
2021/07/06 09:54:32;;;;;;;2.03;0.70;;;;;;;31.86;48.31;97171.28;5041148;28;20048;-85
2021/07/06 09:57:53;;;;;;;5.82;0.80;;;;;;;31.54;46.91;97157.88;5011391;28;20049;-83
2021/07/06 10:00:19;;;;;;;1.90;0.70;;;;;;;32.12;44.48;97148.53;5027215;28;20052;-84
2021/07/06 10:03:16;;;;;;;3.40;0.77;;;;;;;32.31;46.32;97156.47;5080199;23;20057;-81
2021/07/06 10:05:45;;;;;;;0.70;0.60;;;;;;;32.15;44.71;97156.00;5003087;28;20482;-81
2021/07/06 10:08:12;;;;;;;2.70;0.60;;;;;;;32.52;42.38;97147.06;5037693;28;20045;-82
2021/07/06 10:10:40;;;;;;;2.45;0.88;;;;;;;33.08;43.92;97149.19;5036690;28;20113;-82
2021/07/06 10:13:07;;;;;;;3.28;0.90;;;;;;;33.51;44.35;97147.03;5037760;28;20111;-84
2021/07/06 10:15:33;;;;;;;1.70;0.70;;;;;;;34.25;37.09;97157.97;5035534;28;20096;-83
2021/07/06 10:18:00;;;;;;;1.80;0.60;;;;;;;33.82;41.73;97161.47;5037714;28;20100;-82
2021/07/06 10:20:29;;;;;;;5.07;0.80;;;;;;;33.18;44.20;97155.53;5018969;28;20076;-84
2021/07/06 10:22:58;;;;;;;2.78;1.10;;;;;;;32.86;45.89;97154.25;5036589;28;20048;-82
2021/07/06 10:25:28;;;;;;;2.78;0.80;;;;;;;34.11;40.49;97147.50;5019611;28;20061;-83
2021/07/06 10:27:59;;;;;;;1.85;1.00;;;;;;;35.16;36.99;97139.25;5037991;28;20068;-81
2021/07/06 10:30:44;;;;;;;1.65;0.80;;;;;;;35.23;37.81;97136.06;5036175;28;20042;-83
2021/07/06 10:33:26;;;;;;;1.48;0.65;;;;;;;34.38;41.42;97154.88;5019070;28;20049;-82
2021/07/06 10:35:56;;;;;;;2.83;0.70;;;;;;;34.49;39.81;97146.63;5020214;28;20045;-85
2021/07/06 10:38:29;;;;;;;1.08;0.80;;;;;;;36.88;32.99;97141.94;5037045;28;20042;-83
2021/07/06 10:41:02;;;;;;;2.88;0.90;;;;;;;36.32;33.07;97134.25;5038321;28;20049;-84
2021/07/06 10:43:34;;;;;;;3.50;0.77;;;;;;;36.25;36.90;97149.59;5035500;28;20045;-84
2021/07/06 10:46:30;;;;;;;0.80;0.80;;;;;;;35.04;37.35;97149.56;5036668;28;20479;-83
2021/07/06 10:49:15;;;;;;;1.60;0.82;;;;;;;34.81;38.60;97154.09;5035880;28;20033;-83
2021/07/06 10:51:41;;;;;;;1.75;0.82;;;;;;;35.81;36.22;97151.91;5003930;28;20125;-84
2021/07/06 10:54:18;;;;;;;1.70;0.80;;;;;;;36.38;33.75;97160.47;5036125;28;20064;-84
2021/07/06 10:56:46;;;;;;;1.23;0.80;;;;;;;36.00;35.00;97150.34;5019283;28;20470;-85
2021/07/06 10:59:30;;;;;;;1.30;0.85;;;;;;;36.88;32.82;97145.53;5037119;28;20631;-84
2021/07/06 11:02:00;;;;;;;1.05;0.80;;;;;;;34.34;37.97;97149.47;5037207;28;20046;-84
2021/07/06 11:04:49;;;;;;;1.20;0.80;;;;;;;35.58;34.76;97150.88;5037176;28;20141;-83
2021/07/06 11:07:39;;;;;;;1.35;0.80;;;;;;;35.78;36.02;97148.03;5038628;28;20064;-83
2021/07/06 11:10:08;;;;;;;4.22;0.80;;;;;;;37.08;32.55;97147.50;5023377;28;20285;-83
2021/07/06 11:12:36;;;;;;;1.30;0.73;;;;;;;37.09;32.10;97129.25;5042974;28;20041;-83
2021/07/06 11:15:20;;;;;;;1.40;0.85;;;;;;;38.16;32.26;97148.22;5043141;28;20049;-83
2021/07/06 11:18:05;;;;;;;0.98;0.80;;;;;;;36.63;34.08;97142.75;5002976;28;20499;-83
2021/07/06 11:20:47;;;;;;;1.15;0.80;;;;;;;36.43;35.15;97135.13;5035634;28;20050;-82
2021/07/06 11:23:37;;;;;;;0.98;0.77;;;;;;;36.29;37.48;97140.91;5034964;28;20049;-82
2021/07/06 11:26:06;;;;;;;1.10;0.68;;;;;;;36.22;35.35;97131.63;5036003;28;20109;-83
2021/07/06 11:28:49;;;;;;;1.77;0.90;;;;;;;37.75;31.47;97128.06;5034276;28;20091;-83
2021/07/06 11:31:18;;;;;;;0.93;0.80;;;;;;;37.30;34.81;97132.72;5033860;28;20048;-84
2021/07/06 11:33:45;;;;;;;1.20;1.10;;;;;;;36.10;35.90;97132.78;5034558;28;20100;-82
2021/07/06 11:36:22;;;;;;;0.90;0.80;;;;;;;37.03;34.10;97133.34;5035764;28;20042;-84
2021/07/06 11:38:52;;;;;;;1.38;0.82;;;;;;;39.98;29.11;97120.94;5017427;28;20049;-83
2021/07/06 11:41:23;;;;;;;1.90;0.98;;;;;;;38.86;30.60;97126.19;5036137;28;20049;-82
2021/07/06 11:43:49;;;;;;;1.55;1.05;;;;;;;39.30;31.07;97116.06;5034893;28;20065;-84
2021/07/06 11:46:18;;;;;;;1.48;0.90;;;;;;;39.82;29.47;97117.69;5033952;28;20041;-82
2021/07/06 11:48:51;;;;;;;1.88;0.90;;;;;;;38.83;32.03;97135.72;5036230;28;20053;-83
2021/07/06 11:51:19;;;;;;;0.90;0.90;;;;;;;38.91;32.30;97135.97;5034654;28;20128;-84
2021/07/06 11:53:57;;;;;;;1.15;0.80;;;;;;;39.57;29.07;97129.34;5017334;28;20456;-83
2021/07/06 11:56:29;;;;;;;1.08;0.95;;;;;;;38.93;29.40;97134.16;5033704;28;20052;-83
2021/07/06 11:58:56;;;;;;;0.90;0.90;;;;;;;39.57;30.34;97135.78;5033639;28;20041;-81